This is the latest recevied weather packets stored in our database for station/object HK4D-15. If no packets are shown the sender has not sent any weather packets the latest 10 day(s).
| Time | Temp. | Humidity | Pressure | Rain* | Wind** | Luminosity | Snow |
|---|---|---|---|---|---|---|---|
| 1777674892 | 21.11° C | 66% | 1011 hPa | 0 mm | - | - | - |
| 1777674233 | 21.11° C | 68% | 1010 hPa | 0 mm | - | - | - |
| 1777673571 | 21.11° C | 70% | 1010 hPa | 0 mm | - | - | - |
| 1777672911 | 21.11° C | 69% | 1010 hPa | 0 mm | - | - | - |
| 1777672251 | 21.11° C | 69% | 1010 hPa | 0 mm | - | - | - |
| 1777671589 | 22.78° C | 57% | 1010 hPa | 0 mm | - | - | - |
| 1777670928 | 22.78° C | 57% | 1009 hPa | 0 mm | - | - | - |
| 1777670267 | 22.78° C | 56% | 1009 hPa | 0 mm | - | - | - |
| 1777669607 | 22.78° C | 56% | 1009 hPa | 0 mm | - | - | - |
| 1777668946 | 23.89° C | 50% | 1009 hPa | 0 mm | - | - | - |
| 1777668286 | 23.89° C | 50% | 1009 hPa | 0 mm | - | - | - |
| 1777667625 | 23.33° C | 52% | 1009 hPa | 0 mm | - | - | - |
| 1777666963 | 23.33° C | 53% | 1009 hPa | 0 mm | - | - | - |
| 1777666301 | 23.33° C | 53% | 1009 hPa | 0 mm | - | - | - |
| 1777665640 | 23.33° C | 54% | 1009 hPa | 0 mm | - | - | - |
| 1777664979 | 22.78° C | 55% | 1009 hPa | 0 mm | - | - | - |
| 1777664319 | 23.33° C | 53% | 1009 hPa | 0 mm | - | - | - |
| 1777663658 | 23.33° C | 52% | 1009 hPa | 0 mm | - | - | - |
| 1777662998 | 23.33° C | 51% | 1009 hPa | 0 mm | - | - | - |
| 1777662336 | 23.33° C | 49% | 1009 hPa | 0 mm | - | - | - |
| 1777661675 | 23.33° C | 46% | 1009 hPa | 0 mm | - | - | - |
| 1777661014 | 23.33° C | 46% | 1009 hPa | 0 mm | - | - | - |
| 1777660354 | 23.33° C | 46% | 1009 hPa | 0 mm | - | - | - |
| 1777659694 | 23.33° C | 47% | 1010 hPa | 0 mm | - | - | - |
| 1777659033 | 22.78° C | 50% | 1010 hPa | 0 mm | - | - | - |
* Rain latest hour (hover to see other rain measurements)
** Current wind speed in m/s (hover to see current wind gust speed)